METAR Data
IDs: Format: Raw Decoded Include TAF

Data at: 0059 UTC 10 Dec 2022

METAR for:KSDF (Louisville Intl, KY, US)
Text:KSDF 100056Z 36003KT 3SM BR FEW006 BKN029 11/09 A3013 RMK AO2 SFC VIS 5 SLP204 T01060094
Temperature: 10.6°C ( 51°F)
Dewpoint: 9.4°C ( 49°F) [RH = 92%]
Pressure (altimeter):30.13 inches Hg (1020.4 mb) [Sea level pressure: 1020.4 mb]
Winds:from the N (360 degrees) at 3 MPH (3 knots; 1.5 m/s)
Visibility: 3 sm ( 5 km)
Ceiling:2900 feet AGL
Clouds: few clouds at 600 feet AGL, broken clouds at 2900 feet AGL
Weather:BR (mist)